sensor_id;sensor_type;location;lat;lon;timestamp;pressure;altitude;pressure_sealevel;temperature;humidity
73205;BME280;61413;-27.702;153.216;2024-01-25T00:01:17;101342.79;;;38.87;21.53
73205;BME280;61413;-27.702;153.216;2024-01-25T00:04:30;101350.87;;;41.85;18.96
73205;BME280;61413;-27.702;153.216;2024-01-25T00:06:58;101350.55;;;42.94;17.44
73205;BME280;61413;-27.702;153.216;2024-01-25T00:09:25;101348.35;;;43.66;16.79
73205;BME280;61413;-27.702;153.216;2024-01-25T00:11:51;101351.04;;;44.54;15.93
73205;BME280;61413;-27.702;153.216;2024-01-25T00:14:18;101340.83;;;45.50;15.46
73205;BME280;61413;-27.702;153.216;2024-01-25T00:16:45;101341.09;;;40.27;17.67
73205;BME280;61413;-27.702;153.216;2024-01-25T00:19:12;101328.38;;;39.35;18.58
73205;BME280;61413;-27.702;153.216;2024-01-25T00:21:43;101328.38;;;37.25;19.51
73205;BME280;61413;-27.702;153.216;2024-01-25T00:24:06;101319.84;;;39.64;18.82
73205;BME280;61413;-27.702;153.216;2024-01-25T00:26:33;101315.95;;;41.92;17.78
73205;BME280;61413;-27.702;153.216;2024-01-25T00:29:00;101308.00;;;41.93;17.53
73205;BME280;61413;-27.702;153.216;2024-01-25T00:31:27;101304.01;;;43.43;16.79
73205;BME280;61413;-27.702;153.216;2024-01-25T00:33:54;101308.84;;;43.04;16.72
73205;BME280;61413;-27.702;153.216;2024-01-25T00:39:04;101307.80;;;45.33;15.24
73205;BME280;61413;-27.702;153.216;2024-01-25T00:41:34;101309.89;;;46.50;14.34
73205;BME280;61413;-27.702;153.216;2024-01-25T00:43:58;101308.43;;;47.15;13.76
73205;BME280;61413;-27.702;153.216;2024-01-25T00:48:32;101297.96;;;48.06;12.96
73205;BME280;61413;-27.702;153.216;2024-01-25T00:50:59;101294.10;;;47.40;12.80
73205;BME280;61413;-27.702;153.216;2024-01-25T00:55:55;101289.64;;;47.45;12.87
73205;BME280;61413;-27.702;153.216;2024-01-25T00:58:22;101290.67;;;47.75;12.85
73205;BME280;61413;-27.702;153.216;2024-01-25T01:00:49;101290.88;;;47.99;12.67
73205;BME280;61413;-27.702;153.216;2024-01-25T01:03:18;101283.16;;;45.64;13.41
73205;BME280;61413;-27.702;153.216;2024-01-25T01:05:45;101283.02;;;47.01;13.10
73205;BME280;61413;-27.702;153.216;2024-01-25T01:08:13;101279.76;;;47.29;12.72
73205;BME280;61413;-27.702;153.216;2024-01-25T01:10:40;101276.99;;;45.24;13.77
73205;BME280;61413;-27.702;153.216;2024-01-25T01:13:07;101276.88;;;46.01;13.65
73205;BME280;61413;-27.702;153.216;2024-01-25T01:15:35;101274.94;;;46.73;13.43
73205;BME280;61413;-27.702;153.216;2024-01-25T01:18:02;101272.20;;;46.84;13.24
73205;BME280;61413;-27.702;153.216;2024-01-25T01:20:29;101264.91;;;44.61;14.23
73205;BME280;61413;-27.702;153.216;2024-01-25T01:22:56;101256.99;;;46.32;13.51
73205;BME280;61413;-27.702;153.216;2024-01-25T01:25:23;101256.35;;;46.51;13.26
73205;BME280;61413;-27.702;153.216;2024-01-25T01:27:50;101250.63;;;46.85;12.90
73205;BME280;61413;-27.702;153.216;2024-01-25T01:30:16;101250.04;;;47.53;12.70
73205;BME280;61413;-27.702;153.216;2024-01-25T01:32:43;101243.58;;;47.34;12.87
73205;BME280;61413;-27.702;153.216;2024-01-25T01:35:10;101238.55;;;47.51;12.83
73205;BME280;61413;-27.702;153.216;2024-01-25T01:37:37;101236.65;;;47.73;12.78
73205;BME280;61413;-27.702;153.216;2024-01-25T01:40:03;101230.56;;;46.40;13.30
73205;BME280;61413;-27.702;153.216;2024-01-25T01:42:32;101218.55;;;44.79;14.55
73205;BME280;61413;-27.702;153.216;2024-01-25T01:44:56;101208.48;;;41.96;16.07
73205;BME280;61413;-27.702;153.216;2024-01-25T01:47:22;101206.29;;;40.74;17.04
73205;BME280;61413;-27.702;153.216;2024-01-25T01:49:49;101198.49;;;39.12;18.11
73205;BME280;61413;-27.702;153.216;2024-01-25T01:52:17;101204.57;;;38.10;19.06
73205;BME280;61413;-27.702;153.216;2024-01-25T01:54:44;101203.45;;;37.26;20.58
73205;BME280;61413;-27.702;153.216;2024-01-25T01:57:12;101193.91;;;36.18;21.57
73205;BME280;61413;-27.702;153.216;2024-01-25T01:59:39;101184.22;;;36.06;22.13
73205;BME280;61413;-27.702;153.216;2024-01-25T02:02:06;101184.22;;;35.11;22.93
73205;BME280;61413;-27.702;153.216;2024-01-25T02:04:33;101175.94;;;34.37;23.29
73205;BME280;61413;-27.702;153.216;2024-01-25T02:07:00;101166.00;;;34.18;23.97
73205;BME280;61413;-27.702;153.216;2024-01-25T02:09:26;101157.79;;;34.09;24.35
73205;BME280;61413;-27.702;153.216;2024-01-25T02:12:01;101151.75;;;34.15;24.62
73205;BME280;61413;-27.702;153.216;2024-01-25T02:14:20;101154.95;;;34.09;24.55
73205;BME280;61413;-27.702;153.216;2024-01-25T02:16:47;101149.01;;;34.29;24.71
73205;BME280;61413;-27.702;153.216;2024-01-25T02:19:14;101147.80;;;34.13;24.55
73205;BME280;61413;-27.702;153.216;2024-01-25T02:21:41;101147.92;;;34.34;24.49
73205;BME280;61413;-27.702;153.216;2024-01-25T02:24:08;101147.08;;;34.26;24.60
73205;BME280;61413;-27.702;153.216;2024-01-25T02:26:37;101147.95;;;34.39;24.43
73205;BME280;61413;-27.702;153.216;2024-01-25T02:29:04;101146.51;;;34.20;23.99
73205;BME280;61413;-27.702;153.216;2024-01-25T02:33:59;101140.34;;;34.51;23.86
73205;BME280;61413;-27.702;153.216;2024-01-25T02:36:26;101131.25;;;34.53;23.92
73205;BME280;61413;-27.702;153.216;2024-01-25T02:38:53;101126.66;;;34.60;24.02
73205;BME280;61413;-27.702;153.216;2024-01-25T02:41:19;101129.10;;;34.61;24.10
73205;BME280;61413;-27.702;153.216;2024-01-25T02:43:46;101123.00;;;34.30;24.28
73205;BME280;61413;-27.702;153.216;2024-01-25T02:46:13;101121.79;;;34.41;24.35
73205;BME280;61413;-27.702;153.216;2024-01-25T02:48:40;101119.83;;;34.56;24.79
73205;BME280;61413;-27.702;153.216;2024-01-25T02:51:07;101120.61;;;34.53;25.39
73205;BME280;61413;-27.702;153.216;2024-01-25T02:53:34;101121.26;;;34.49;25.33
73205;BME280;61413;-27.702;153.216;2024-01-25T02:56:00;101119.49;;;34.34;25.09
73205;BME280;61413;-27.702;153.216;2024-01-25T03:00:26;101114.72;;;34.57;24.78
73205;BME280;61413;-27.702;153.216;2024-01-25T03:02:53;101108.12;;;34.37;24.60
73205;BME280;61413;-27.702;153.216;2024-01-25T03:05:20;101106.76;;;34.73;24.97
73205;BME280;61413;-27.702;153.216;2024-01-25T03:07:46;101103.55;;;34.67;24.98
73205;BME280;61413;-27.702;153.216;2024-01-25T03:10:13;101100.10;;;34.68;24.72
73205;BME280;61413;-27.702;153.216;2024-01-25T03:12:40;101097.96;;;34.74;24.50
73205;BME280;61413;-27.702;153.216;2024-01-25T03:15:09;101096.18;;;34.65;24.34
73205;BME280;61413;-27.702;153.216;2024-01-25T03:17:32;101096.30;;;34.99;24.38
73205;BME280;61413;-27.702;153.216;2024-01-25T03:20:00;101089.90;;;34.92;24.26
73205;BME280;61413;-27.702;153.216;2024-01-25T03:22:27;101087.71;;;34.69;24.60
73205;BME280;61413;-27.702;153.216;2024-01-25T03:26:01;101085.76;;;34.37;24.49
73205;BME280;61413;-27.702;153.216;2024-01-25T03:28:28;101073.95;;;34.74;24.26
73205;BME280;61413;-27.702;153.216;2024-01-25T03:30:56;101069.50;;;34.51;24.19
73205;BME280;61413;-27.702;153.216;2024-01-25T03:33:23;101064.69;;;34.61;23.94
73205;BME280;61413;-27.702;153.216;2024-01-25T03:35:50;101060.88;;;34.62;23.90
73205;BME280;61413;-27.702;153.216;2024-01-25T03:38:17;101054.78;;;34.55;23.82
73205;BME280;61413;-27.702;153.216;2024-01-25T03:40:44;101056.58;;;34.24;23.91
73205;BME280;61413;-27.702;153.216;2024-01-25T03:45:28;101055.05;;;34.10;24.49
73205;BME280;61413;-27.702;153.216;2024-01-25T03:47:55;101059.81;;;34.10;24.37
73205;BME280;61413;-27.702;153.216;2024-01-25T03:50:23;101056.79;;;34.49;24.02
73205;BME280;61413;-27.702;153.216;2024-01-25T03:54:53;101049.86;;;34.72;23.81
73205;BME280;61413;-27.702;153.216;2024-01-25T03:57:20;101039.10;;;34.81;23.58
73205;BME280;61413;-27.702;153.216;2024-01-25T03:59:47;101041.42;;;34.71;23.49
73205;BME280;61413;-27.702;153.216;2024-01-25T04:02:14;101038.43;;;34.86;23.31
73205;BME280;61413;-27.702;153.216;2024-01-25T04:07:17;101035.20;;;34.48;23.95
73205;BME280;61413;-27.702;153.216;2024-01-25T04:09:44;101036.18;;;34.80;23.78
73205;BME280;61413;-27.702;153.216;2024-01-25T04:12:11;101033.35;;;34.73;23.52
73205;BME280;61413;-27.702;153.216;2024-01-25T04:14:38;101035.84;;;34.45;24.18
73205;BME280;61413;-27.702;153.216;2024-01-25T04:17:05;101032.18;;;34.29;24.82
73205;BME280;61413;-27.702;153.216;2024-01-25T04:19:32;101028.94;;;34.56;24.86
73205;BME280;61413;-27.702;153.216;2024-01-25T04:21:59;101020.11;;;34.21;25.11
73205;BME280;61413;-27.702;153.216;2024-01-25T04:24:26;101022.01;;;33.98;25.73
73205;BME280;61413;-27.702;153.216;2024-01-25T04:26:53;101018.54;;;34.07;25.92
73205;BME280;61413;-27.702;153.216;2024-01-25T04:29:21;101018.68;;;33.88;25.52
73205;BME280;61413;-27.702;153.216;2024-01-25T04:31:49;101011.03;;;33.89;25.72
73205;BME280;61413;-27.702;153.216;2024-01-25T04:34:16;101011.32;;;33.54;25.82
73205;BME280;61413;-27.702;153.216;2024-01-25T04:36:43;101014.51;;;33.53;26.72
73205;BME280;61413;-27.702;153.216;2024-01-25T04:39:10;101009.04;;;33.14;26.49
73205;BME280;61413;-27.702;153.216;2024-01-25T04:41:38;101010.03;;;33.39;26.43
73205;BME280;61413;-27.702;153.216;2024-01-25T04:44:06;101017.72;;;33.99;26.23
73205;BME280;61413;-27.702;153.216;2024-01-25T04:46:32;101017.32;;;34.13;26.12
73205;BME280;61413;-27.702;153.216;2024-01-25T04:48:59;101015.59;;;33.69;26.42
73205;BME280;61413;-27.702;153.216;2024-01-25T04:51:27;101019.04;;;33.63;26.79
73205;BME280;61413;-27.702;153.216;2024-01-25T04:53:55;101017.74;;;33.22;26.99
73205;BME280;61413;-27.702;153.216;2024-01-25T04:56:22;101020.57;;;33.41;27.17
73205;BME280;61413;-27.702;153.216;2024-01-25T04:58:49;101024.09;;;33.50;27.02
73205;BME280;61413;-27.702;153.216;2024-01-25T05:03:02;101019.59;;;33.05;27.14
73205;BME280;61413;-27.702;153.216;2024-01-25T05:06:28;101014.77;;;33.29;26.96
73205;BME280;61413;-27.702;153.216;2024-01-25T05:08:55;101015.50;;;33.05;27.07
73205;BME280;61413;-27.702;153.216;2024-01-25T05:11:22;101016.59;;;33.28;27.40
73205;BME280;61413;-27.702;153.216;2024-01-25T05:13:49;101018.77;;;32.75;27.33
73205;BME280;61413;-27.702;153.216;2024-01-25T05:17:54;101017.56;;;32.82;27.66
73205;BME280;61413;-27.702;153.216;2024-01-25T05:20:21;101017.47;;;32.45;27.91
73205;BME280;61413;-27.702;153.216;2024-01-25T05:22:48;101016.70;;;32.68;27.94
73205;BME280;61413;-27.702;153.216;2024-01-25T05:25:15;101012.47;;;32.54;28.04
73205;BME280;61413;-27.702;153.216;2024-01-25T05:27:41;101008.98;;;32.85;28.22
73205;BME280;61413;-27.702;153.216;2024-01-25T05:30:09;101008.46;;;32.68;28.26
73205;BME280;61413;-27.702;153.216;2024-01-25T05:32:36;101009.47;;;32.79;28.20
73205;BME280;61413;-27.702;153.216;2024-01-25T05:35:03;101009.67;;;32.79;28.13
73205;BME280;61413;-27.702;153.216;2024-01-25T05:37:31;101017.63;;;32.77;28.01
73205;BME280;61413;-27.702;153.216;2024-01-25T05:39:57;101017.27;;;32.81;27.85
73205;BME280;61413;-27.702;153.216;2024-01-25T05:42:24;101011.42;;;32.43;27.94
73205;BME280;61413;-27.702;153.216;2024-01-25T05:44:52;101027.62;;;32.19;28.25
73205;BME280;61413;-27.702;153.216;2024-01-25T05:47:18;101025.58;;;32.47;28.25
73205;BME280;61413;-27.702;153.216;2024-01-25T05:49:45;101020.91;;;32.45;28.21
73205;BME280;61413;-27.702;153.216;2024-01-25T05:52:12;101020.88;;;32.56;28.12
73205;BME280;61413;-27.702;153.216;2024-01-25T05:54:40;101024.54;;;32.37;28.01
73205;BME280;61413;-27.702;153.216;2024-01-25T05:57:07;101025.10;;;32.75;27.62
73205;BME280;61413;-27.702;153.216;2024-01-25T05:59:34;101014.55;;;32.43;27.83
73205;BME280;61413;-27.702;153.216;2024-01-25T06:02:01;101017.70;;;32.33;28.02
73205;BME280;61413;-27.702;153.216;2024-01-25T06:04:27;101008.30;;;32.50;27.96
73205;BME280;61413;-27.702;153.216;2024-01-25T06:06:54;101013.90;;;32.13;27.84
73205;BME280;61413;-27.702;153.216;2024-01-25T06:09:22;101018.56;;;32.31;27.99
73205;BME280;61413;-27.702;153.216;2024-01-25T06:11:49;101015.48;;;31.96;28.16
73205;BME280;61413;-27.702;153.216;2024-01-25T06:14:16;101016.15;;;32.14;28.13
73205;BME280;61413;-27.702;153.216;2024-01-25T06:16:43;101017.01;;;31.96;27.97
73205;BME280;61413;-27.702;153.216;2024-01-25T06:19:10;101021.32;;;31.80;28.06
73205;BME280;61413;-27.702;153.216;2024-01-25T06:21:38;101027.05;;;32.07;28.10
73205;BME280;61413;-27.702;153.216;2024-01-25T06:24:06;101032.00;;;31.74;28.13
73205;BME280;61413;-27.702;153.216;2024-01-25T06:28:39;101033.52;;;31.88;28.30
73205;BME280;61413;-27.702;153.216;2024-01-25T06:31:07;101033.61;;;31.71;28.16
73205;BME280;61413;-27.702;153.216;2024-01-25T06:33:42;101031.91;;;31.37;28.37
73205;BME280;61413;-27.702;153.216;2024-01-25T06:36:02;101035.16;;;31.80;28.35
73205;BME280;61413;-27.702;153.216;2024-01-25T06:38:29;101039.41;;;31.64;28.35
73205;BME280;61413;-27.702;153.216;2024-01-25T06:40:56;101044.70;;;31.93;28.20
73205;BME280;61413;-27.702;153.216;2024-01-25T06:43:23;101049.92;;;31.78;28.34
73205;BME280;61413;-27.702;153.216;2024-01-25T06:45:50;101052.26;;;31.44;28.39
73205;BME280;61413;-27.702;153.216;2024-01-25T06:48:16;101050.27;;;31.56;28.53
73205;BME280;61413;-27.702;153.216;2024-01-25T06:50:43;101048.68;;;31.56;28.54
73205;BME280;61413;-27.702;153.216;2024-01-25T06:53:10;101041.89;;;31.40;28.70
73205;BME280;61413;-27.702;153.216;2024-01-25T06:55:37;101040.21;;;31.17;28.77
73205;BME280;61413;-27.702;153.216;2024-01-25T06:58:04;101043.26;;;31.51;28.83
73205;BME280;61413;-27.702;153.216;2024-01-25T07:00:31;101042.65;;;31.23;28.84
73205;BME280;61413;-27.702;153.216;2024-01-25T07:02:59;101044.99;;;31.32;28.93
73205;BME280;61413;-27.702;153.216;2024-01-25T07:05:25;101044.92;;;31.04;28.89
73205;BME280;61413;-27.702;153.216;2024-01-25T07:07:53;101053.99;;;31.44;29.00
73205;BME280;61413;-27.702;153.216;2024-01-25T07:10:19;101057.36;;;31.22;29.05
73205;BME280;61413;-27.702;153.216;2024-01-25T07:12:46;101055.08;;;30.81;29.20
73205;BME280;61413;-27.702;153.216;2024-01-25T07:15:13;101053.77;;;30.89;29.26
73205;BME280;61413;-27.702;153.216;2024-01-25T07:17:41;101054.80;;;31.36;29.22
73205;BME280;61413;-27.702;153.216;2024-01-25T07:20:08;101061.31;;;31.46;29.15
73205;BME280;61413;-27.702;153.216;2024-01-25T07:22:35;101069.50;;;31.32;29.32
73205;BME280;61413;-27.702;153.216;2024-01-25T07:25:02;101080.44;;;31.19;29.38
73205;BME280;61413;-27.702;153.216;2024-01-25T07:27:29;101088.13;;;31.33;29.55
73205;BME280;61413;-27.702;153.216;2024-01-25T07:29:56;101098.34;;;31.37;29.49
73205;BME280;61413;-27.702;153.216;2024-01-25T07:32:23;101108.36;;;31.42;29.37
73205;BME280;61413;-27.702;153.216;2024-01-25T07:34:50;101109.82;;;31.08;29.25
73205;BME280;61413;-27.702;153.216;2024-01-25T07:37:17;101110.56;;;31.28;29.13
73205;BME280;61413;-27.702;153.216;2024-01-25T07:39:44;101102.71;;;31.10;29.17
73205;BME280;61413;-27.702;153.216;2024-01-25T07:42:11;101106.37;;;31.03;29.40
73205;BME280;61413;-27.702;153.216;2024-01-25T07:46:33;101107.77;;;30.89;30.15
73205;BME280;61413;-27.702;153.216;2024-01-25T07:49:01;101103.77;;;30.70;30.48
73205;BME280;61413;-27.702;153.216;2024-01-25T07:51:27;101104.70;;;31.10;30.41
73205;BME280;61413;-27.702;153.216;2024-01-25T07:53:54;101103.20;;;30.88;30.21
73205;BME280;61413;-27.702;153.216;2024-01-25T07:56:21;101102.71;;;31.46;30.11
73205;BME280;61413;-27.702;153.216;2024-01-25T07:58:53;101106.35;;;31.06;30.11
73205;BME280;61413;-27.702;153.216;2024-01-25T08:01:20;101119.38;;;30.82;30.22
73205;BME280;61413;-27.702;153.216;2024-01-25T08:03:43;101117.25;;;30.51;30.29
73205;BME280;61413;-27.702;153.216;2024-01-25T08:06:12;101117.09;;;30.65;30.42
73205;BME280;61413;-27.702;153.216;2024-01-25T08:08:35;101110.95;;;30.37;30.48
73205;BME280;61413;-27.702;153.216;2024-01-25T08:11:04;101112.72;;;30.31;30.47
73205;BME280;61413;-27.702;153.216;2024-01-25T08:13:31;101117.80;;;30.57;30.49
73205;BME280;61413;-27.702;153.216;2024-01-25T08:17:18;101126.96;;;30.27;30.76
73205;BME280;61413;-27.702;153.216;2024-01-25T08:20:43;101131.29;;;30.05;31.10
73205;BME280;61413;-27.702;153.216;2024-01-25T08:23:10;101129.47;;;29.84;31.31
73205;BME280;61413;-27.702;153.216;2024-01-25T08:25:36;101125.71;;;29.55;31.79
73205;BME280;61413;-27.702;153.216;2024-01-25T08:28:03;101126.50;;;29.33;32.05
73205;BME280;61413;-27.702;153.216;2024-01-25T08:30:30;101125.49;;;29.19;32.40
73205;BME280;61413;-27.702;153.216;2024-01-25T08:32:57;101126.94;;;28.85;32.78
73205;BME280;61413;-27.702;153.216;2024-01-25T08:35:23;101133.12;;;28.75;32.99
73205;BME280;61413;-27.702;153.216;2024-01-25T08:37:50;101134.29;;;29.16;32.90
73205;BME280;61413;-27.702;153.216;2024-01-25T08:40:17;101135.15;;;28.99;33.10
73205;BME280;61413;-27.702;153.216;2024-01-25T08:42:44;101142.04;;;28.88;33.00
73205;BME280;61413;-27.702;153.216;2024-01-25T08:45:11;101149.66;;;29.05;33.00
73205;BME280;61413;-27.702;153.216;2024-01-25T08:47:38;101156.37;;;28.39;33.29
73205;BME280;61413;-27.702;153.216;2024-01-25T08:50:05;101158.88;;;28.09;33.73
73205;BME280;61413;-27.702;153.216;2024-01-25T08:52:32;101166.22;;;28.55;33.89
73205;BME280;61413;-27.702;153.216;2024-01-25T08:54:59;101171.51;;;28.06;34.17
73205;BME280;61413;-27.702;153.216;2024-01-25T08:57:25;101173.36;;;28.05;34.44
73205;BME280;61413;-27.702;153.216;2024-01-25T08:59:52;101175.05;;;28.00;34.69
73205;BME280;61413;-27.702;153.216;2024-01-25T09:02:18;101180.03;;;27.85;34.86
73205;BME280;61413;-27.702;153.216;2024-01-25T09:04:46;101179.06;;;27.67;35.01
73205;BME280;61413;-27.702;153.216;2024-01-25T09:07:12;101180.66;;;27.39;35.19
73205;BME280;61413;-27.702;153.216;2024-01-25T09:09:39;101185.41;;;27.42;35.25
73205;BME280;61413;-27.702;153.216;2024-01-25T09:12:06;101187.35;;;27.29;35.52
73205;BME280;61413;-27.702;153.216;2024-01-25T09:14:32;101189.81;;;27.59;35.50
73205;BME280;61413;-27.702;153.216;2024-01-25T09:16:59;101191.65;;;27.55;35.54
73205;BME280;61413;-27.702;153.216;2024-01-25T09:19:26;101198.71;;;27.34;35.74
73205;BME280;61413;-27.702;153.216;2024-01-25T09:21:53;101197.69;;;27.35;35.99
73205;BME280;61413;-27.702;153.216;2024-01-25T09:24:20;101198.87;;;27.14;36.21
73205;BME280;61413;-27.702;153.216;2024-01-25T09:26:47;101200.04;;;27.26;36.35
73205;BME280;61413;-27.702;153.216;2024-01-25T09:29:14;101199.94;;;27.11;36.46
73205;BME280;61413;-27.702;153.216;2024-01-25T09:31:41;101200.50;;;27.05;36.53
73205;BME280;61413;-27.702;153.216;2024-01-25T09:34:08;101202.93;;;26.81;36.61
73205;BME280;61413;-27.702;153.216;2024-01-25T09:36:35;101205.86;;;26.77;36.67
73205;BME280;61413;-27.702;153.216;2024-01-25T09:39:01;101213.17;;;26.67;36.76
73205;BME280;61413;-27.702;153.216;2024-01-25T09:41:28;101219.45;;;26.99;36.75
73205;BME280;61413;-27.702;153.216;2024-01-25T09:43:55;101225.61;;;26.45;36.82
73205;BME280;61413;-27.702;153.216;2024-01-25T09:46:22;101227.74;;;26.84;36.90
73205;BME280;61413;-27.702;153.216;2024-01-25T09:48:49;101229.20;;;26.64;36.89
73205;BME280;61413;-27.702;153.216;2024-01-25T09:51:16;101231.28;;;26.77;37.09
73205;BME280;61413;-27.702;153.216;2024-01-25T09:53:43;101232.81;;;26.52;37.19
73205;BME280;61413;-27.702;153.216;2024-01-25T09:56:10;101234.41;;;26.86;37.39
73205;BME280;61413;-27.702;153.216;2024-01-25T09:58:38;101233.76;;;26.27;37.53
73205;BME280;61413;-27.702;153.216;2024-01-25T10:01:01;101235.41;;;26.68;37.65
73205;BME280;61413;-27.702;153.216;2024-01-25T10:03:28;101240.41;;;26.16;37.82
73205;BME280;61413;-27.702;153.216;2024-01-25T10:05:56;101245.42;;;26.54;37.87
73205;BME280;61413;-27.702;153.216;2024-01-25T10:08:22;101249.10;;;26.55;37.97
73205;BME280;61413;-27.702;153.216;2024-01-25T10:10:49;101253.25;;;26.46;38.04
73205;BME280;61413;-27.702;153.216;2024-01-25T10:13:16;101258.65;;;26.08;38.26
73205;BME280;61413;-27.702;153.216;2024-01-25T10:15:42;101261.99;;;26.61;38.25
73205;BME280;61413;-27.702;153.216;2024-01-25T10:18:09;101265.15;;;26.40;38.34
73205;BME280;61413;-27.702;153.216;2024-01-25T10:20:36;101266.27;;;26.37;38.46
73205;BME280;61413;-27.702;153.216;2024-01-25T10:23:02;101268.96;;;26.09;38.56
73205;BME280;61413;-27.702;153.216;2024-01-25T10:25:30;101272.22;;;26.13;38.74
73205;BME280;61413;-27.702;153.216;2024-01-25T10:27:56;101272.91;;;25.88;39.00
73205;BME280;61413;-27.702;153.216;2024-01-25T10:30:23;101276.70;;;25.96;39.10
73205;BME280;61413;-27.702;153.216;2024-01-25T10:32:51;101275.28;;;26.12;39.24
73205;BME280;61413;-27.702;153.216;2024-01-25T10:35:19;101276.18;;;25.50;39.46
73205;BME280;61413;-27.702;153.216;2024-01-25T10:37:43;101273.90;;;25.38;39.77
73205;BME280;61413;-27.702;153.216;2024-01-25T10:40:12;101274.11;;;25.35;39.87
73205;BME280;61413;-27.702;153.216;2024-01-25T10:42:36;101275.00;;;25.86;39.92
73205;BME280;61413;-27.702;153.216;2024-01-25T10:45:02;101274.75;;;25.83;39.90
73205;BME280;61413;-27.702;153.216;2024-01-25T10:47:29;101277.77;;;25.43;39.95
73205;BME280;61413;-27.702;153.216;2024-01-25T10:49:55;101279.81;;;25.32;40.11
73205;BME280;61413;-27.702;153.216;2024-01-25T10:52:23;101282.22;;;25.42;40.36
73205;BME280;61413;-27.702;153.216;2024-01-25T10:54:50;101285.79;;;25.48;40.55
73205;BME280;61413;-27.702;153.216;2024-01-25T10:57:17;101287.57;;;25.24;40.75
73205;BME280;61413;-27.702;153.216;2024-01-25T10:59:44;101290.38;;;25.24;40.76
73205;BME280;61413;-27.702;153.216;2024-01-25T11:02:11;101293.70;;;25.73;40.80
73205;BME280;61413;-27.702;153.216;2024-01-25T11:04:38;101297.54;;;25.44;40.70
73205;BME280;61413;-27.702;153.216;2024-01-25T11:07:09;101299.69;;;25.47;40.65
73205;BME280;61413;-27.702;153.216;2024-01-25T11:09:32;101297.40;;;25.51;40.72
73205;BME280;61413;-27.702;153.216;2024-01-25T11:12:00;101297.78;;;25.73;40.55
73205;BME280;61413;-27.702;153.216;2024-01-25T11:14:27;101299.25;;;25.27;40.49
73205;BME280;61413;-27.702;153.216;2024-01-25T11:18:14;101298.61;;;25.67;40.79
73205;BME280;61413;-27.702;153.216;2024-01-25T11:20:41;101298.59;;;25.49;41.02
73205;BME280;61413;-27.702;153.216;2024-01-25T11:23:08;101302.70;;;25.33;41.20
73205;BME280;61413;-27.702;153.216;2024-01-25T11:25:36;101305.96;;;25.32;41.30
73205;BME280;61413;-27.702;153.216;2024-01-25T11:28:04;101310.61;;;25.27;41.40
73205;BME280;61413;-27.702;153.216;2024-01-25T11:31:44;101313.62;;;25.53;41.57
73205;BME280;61413;-27.702;153.216;2024-01-25T11:34:11;101311.28;;;25.33;41.52
73205;BME280;61413;-27.702;153.216;2024-01-25T11:36:38;101314.93;;;25.31;41.51
73205;BME280;61413;-27.702;153.216;2024-01-25T11:39:05;101317.35;;;25.06;41.59
73205;BME280;61413;-27.702;153.216;2024-01-25T11:41:33;101316.89;;;25.51;41.59
73205;BME280;61413;-27.702;153.216;2024-01-25T11:43:59;101314.30;;;25.38;41.60
73205;BME280;61413;-27.702;153.216;2024-01-25T11:46:27;101316.19;;;25.37;41.34
73205;BME280;61413;-27.702;153.216;2024-01-25T11:48:53;101317.48;;;25.26;41.35
73205;BME280;61413;-27.702;153.216;2024-01-25T11:51:20;101316.57;;;25.29;41.39
73205;BME280;61413;-27.702;153.216;2024-01-25T11:53:46;101319.28;;;24.98;41.60
73205;BME280;61413;-27.702;153.216;2024-01-25T11:58:05;101325.38;;;24.92;42.25
73205;BME280;61413;-27.702;153.216;2024-01-25T12:00:32;101326.61;;;24.92;42.37
73205;BME280;61413;-27.702;153.216;2024-01-25T12:02:59;101331.56;;;24.87;42.37
73205;BME280;61413;-27.702;153.216;2024-01-25T12:05:27;101333.25;;;24.93;42.48
73205;BME280;61413;-27.702;153.216;2024-01-25T12:07:54;101333.74;;;24.81;42.54
73205;BME280;61413;-27.702;153.216;2024-01-25T12:10:21;101336.49;;;24.74;42.68
73205;BME280;61413;-27.702;153.216;2024-01-25T12:12:50;101338.75;;;24.84;42.74
73205;BME280;61413;-27.702;153.216;2024-01-25T12:15:16;101340.60;;;24.73;42.83
73205;BME280;61413;-27.702;153.216;2024-01-25T12:17:43;101335.93;;;25.00;42.71
73205;BME280;61413;-27.702;153.216;2024-01-25T12:20:11;101332.82;;;25.06;42.55
73205;BME280;61413;-27.702;153.216;2024-01-25T12:22:37;101331.10;;;25.09;42.41
73205;BME280;61413;-27.702;153.216;2024-01-25T12:25:08;101330.49;;;24.91;42.38
73205;BME280;61413;-27.702;153.216;2024-01-25T12:27:31;101328.94;;;25.24;42.41
73205;BME280;61413;-27.702;153.216;2024-01-25T12:29:57;101326.39;;;25.01;42.59
73205;BME280;61413;-27.702;153.216;2024-01-25T12:32:24;101327.38;;;25.11;42.68
73205;BME280;61413;-27.702;153.216;2024-01-25T12:34:56;101328.22;;;25.02;42.73
73205;BME280;61413;-27.702;153.216;2024-01-25T12:37:18;101326.12;;;24.95;42.80
73205;BME280;61413;-27.702;153.216;2024-01-25T12:39:45;101319.96;;;25.03;42.95
73205;BME280;61413;-27.702;153.216;2024-01-25T12:42:11;101316.85;;;24.98;42.97
73205;BME280;61413;-27.702;153.216;2024-01-25T12:44:38;101310.08;;;24.80;43.04
73205;BME280;61413;-27.702;153.216;2024-01-25T12:47:51;101302.31;;;24.70;43.32
73205;BME280;61413;-27.702;153.216;2024-01-25T12:53:12;101301.93;;;24.38;43.64
73205;BME280;61413;-27.702;153.216;2024-01-25T12:55:39;101296.34;;;24.32;43.64
73205;BME280;61413;-27.702;153.216;2024-01-25T12:58:06;101293.47;;;24.54;43.72